createdAt,value
2022-10-14T00:00:16.392Z,100.00
2022-10-14T00:02:46.446Z,100.00
2022-10-14T00:05:19.366Z,100.00
2022-10-14T00:07:49.354Z,100.00
2022-10-14T00:10:19.642Z,100.00
2022-10-14T00:12:50.590Z,100.00
2022-10-14T00:15:20.998Z,100.00
2022-10-14T00:17:51.220Z,100.00
2022-10-14T00:20:24.167Z,100.00
2022-10-14T00:22:55.021Z,100.00
2022-10-14T00:25:26.473Z,100.00
2022-10-14T00:27:57.126Z,100.00
2022-10-14T00:30:27.467Z,100.00
2022-10-14T00:33:00.025Z,100.00
2022-10-14T00:35:32.763Z,100.00
2022-10-14T00:38:02.810Z,100.00
2022-10-14T00:40:32.808Z,100.00
2022-10-14T00:43:02.829Z,100.00
2022-10-14T00:45:32.860Z,100.00
2022-10-14T00:48:02.901Z,100.00
2022-10-14T00:50:36.289Z,100.00
2022-10-14T00:53:06.970Z,100.00
2022-10-14T00:55:37.411Z,100.00
2022-10-14T00:58:08.575Z,100.00
2022-10-14T01:00:42.099Z,100.00
2022-10-14T01:03:13.895Z,100.00
2022-10-14T01:05:59.136Z,100.00
2022-10-14T01:08:38.573Z,100.00
2022-10-14T01:11:19.295Z,100.00
2022-10-14T01:14:00.335Z,100.00
2022-10-14T01:16:47.804Z,100.00
2022-10-14T01:19:51.468Z,100.00
2022-10-14T01:22:31.915Z,100.00
2022-10-14T01:25:17.369Z,100.00
2022-10-14T01:28:23.876Z,100.00
2022-10-14T01:31:03.910Z,100.00
2022-10-14T01:33:43.093Z,100.00
2022-10-14T01:36:21.136Z,100.00
2022-10-14T01:38:57.905Z,100.00
2022-10-14T01:41:33.249Z,100.00
2022-10-14T01:44:10.914Z,100.00
2022-10-14T01:46:53.877Z,100.00
2022-10-14T01:49:33.675Z,100.00
2022-10-14T01:52:12.799Z,100.00
2022-10-14T01:54:47.242Z,100.00
2022-10-14T01:57:25.680Z,100.00
2022-10-14T01:59:58.423Z,100.00
2022-10-14T02:02:31.177Z,100.00
2022-10-14T02:05:01.548Z,100.00
2022-10-14T02:07:40.090Z,100.00
2022-10-14T02:10:23.982Z,100.00
2022-10-14T02:13:11.393Z,100.00
2022-10-14T02:15:55.426Z,100.00
2022-10-14T02:18:40.975Z,100.00
2022-10-14T02:21:24.095Z,100.00
2022-10-14T02:24:05.270Z,100.00
2022-10-14T02:26:37.843Z,100.00
2022-10-14T02:29:09.119Z,100.00
2022-10-14T02:31:44.949Z,100.00
2022-10-14T02:34:23.788Z,100.00
2022-10-14T02:36:56.400Z,100.00
2022-10-14T02:39:33.897Z,100.00
2022-10-14T02:42:04.290Z,100.00
2022-10-14T02:44:37.051Z,100.00
2022-10-14T02:47:07.426Z,100.00
2022-10-14T02:49:40.049Z,100.00
2022-10-14T02:52:10.500Z,100.00
2022-10-14T02:54:43.743Z,100.00
2022-10-14T02:57:14.198Z,100.00
2022-10-14T02:59:44.313Z,100.00
2022-10-14T03:02:14.462Z,100.00
2022-10-14T03:04:47.788Z,100.00
2022-10-14T03:07:17.817Z,100.00
2022-10-14T03:09:52.059Z,100.00
2022-10-14T03:12:22.483Z,100.00
2022-10-14T03:14:53.552Z,100.00
2022-10-14T03:17:24.685Z,100.00
2022-10-14T03:19:59.361Z,100.00
2022-10-14T03:22:29.933Z,100.00
2022-10-14T03:25:00.486Z,100.00
2022-10-14T03:27:40.287Z,100.00
2022-10-14T03:30:15.336Z,100.00
2022-10-14T03:32:58.562Z,100.00
2022-10-14T03:35:52.492Z,100.00
2022-10-14T03:38:29.413Z,100.00
2022-10-14T03:41:02.895Z,100.00
2022-10-14T03:43:33.476Z,100.00
2022-10-14T03:46:03.543Z,100.00
2022-10-14T03:48:34.677Z,100.00
2022-10-14T03:51:07.286Z,100.00
2022-10-14T03:53:38.157Z,100.00
2022-10-14T03:56:09.957Z,100.00
2022-10-14T03:58:40.087Z,100.00
2022-10-14T04:01:15.307Z,100.00
2022-10-14T04:04:11.394Z,100.00
2022-10-14T04:06:44.049Z,100.00
2022-10-14T04:09:14.524Z,100.00
2022-10-14T04:11:45.501Z,100.00
2022-10-14T04:14:31.323Z,100.00
2022-10-14T04:17:02.168Z,100.00
2022-10-14T04:19:32.934Z,100.00
2022-10-14T04:22:07.211Z,100.00
2022-10-14T04:24:37.353Z,100.00
2022-10-14T04:27:07.404Z,100.00
2022-10-14T04:29:43.712Z,100.00
2022-10-14T04:32:20.178Z,100.00
2022-10-14T04:34:50.639Z,100.00
2022-10-14T04:37:26.519Z,100.00
2022-10-14T04:40:14.586Z,100.00
2022-10-14T04:42:49.610Z,100.00
2022-10-14T04:45:27.056Z,100.00
2022-10-14T04:48:02.910Z,100.00
2022-10-14T04:50:33.162Z,100.00
2022-10-14T04:53:25.041Z,100.00
2022-10-14T04:56:10.843Z,100.00
2022-10-14T04:58:51.712Z,100.00
2022-10-14T05:01:22.271Z,100.00
2022-10-14T05:03:52.525Z,100.00
2022-10-14T05:06:22.567Z,100.00
2022-10-14T05:08:58.039Z,100.00
2022-10-14T05:11:28.528Z,100.00
2022-10-14T05:14:00.364Z,100.00
2022-10-14T05:16:34.131Z,100.00
2022-10-14T05:19:04.210Z,100.00
2022-10-14T05:21:35.732Z,100.00
2022-10-14T05:24:18.390Z,100.00
2022-10-14T05:26:49.606Z,100.00
2022-10-14T05:29:19.879Z,100.00
2022-10-14T05:31:52.990Z,100.00
2022-10-14T05:34:37.658Z,100.00
2022-10-14T05:37:11.356Z,100.00
2022-10-14T05:39:52.056Z,100.00
2022-10-14T05:42:25.357Z,100.00
2022-10-14T05:44:58.014Z,100.00
2022-10-14T05:47:28.845Z,100.00
2022-10-14T05:50:03.618Z,100.00
2022-10-14T05:52:35.834Z,100.00
2022-10-14T05:55:17.818Z,100.00
2022-10-14T05:57:49.290Z,100.00
2022-10-14T06:00:25.724Z,100.00
2022-10-14T06:03:03.125Z,100.00
2022-10-14T06:05:33.410Z,100.00
2022-10-14T06:08:03.410Z,100.00
2022-10-14T06:10:37.656Z,100.00
2022-10-14T06:13:07.758Z,100.00
2022-10-14T06:15:40.795Z,100.00
2022-10-14T06:18:11.319Z,100.00
2022-10-14T06:20:41.993Z,100.00
2022-10-14T06:23:11.944Z,100.00
2022-10-14T06:25:44.528Z,100.00
2022-10-14T06:35:48.686Z,100.00
2022-10-14T06:38:19.036Z,100.00
2022-10-14T06:40:53.667Z,100.00
2022-10-14T06:43:24.764Z,100.00
2022-10-14T06:45:55.092Z,100.00
2022-10-14T06:48:25.143Z,100.00
2022-10-14T06:50:55.779Z,100.00
2022-10-14T06:53:25.813Z,100.00
2022-10-14T06:56:04.369Z,100.00
2022-10-14T06:58:35.856Z,100.00
2022-10-14T07:01:07.719Z,100.00
2022-10-14T07:03:39.478Z,100.00
2022-10-14T07:06:11.881Z,100.00
2022-10-14T07:08:42.882Z,100.00
2022-10-14T07:11:15.559Z,100.00
2022-10-14T07:13:46.103Z,100.00
2022-10-14T07:16:16.111Z,100.00
2022-10-14T07:18:46.140Z,100.00
2022-10-14T07:21:16.248Z,100.00
2022-10-14T07:23:46.712Z,100.00
2022-10-14T07:26:19.364Z,100.00
2022-10-14T07:28:49.489Z,100.00
2022-10-14T07:31:19.679Z,100.00
2022-10-14T07:33:49.748Z,100.00
2022-10-14T07:36:22.754Z,100.00
2022-10-14T07:38:53.409Z,100.00
2022-10-14T07:41:28.120Z,100.00
2022-10-14T07:44:06.494Z,100.00
2022-10-14T07:46:40.540Z,100.00
2022-10-14T07:49:14.880Z,100.00
2022-10-14T07:51:45.828Z,100.00
2022-10-14T07:54:18.810Z,100.00
2022-10-14T07:56:52.046Z,100.00
2022-10-14T07:59:23.761Z,100.00
2022-10-14T08:01:56.767Z,100.00
2022-10-14T08:04:28.356Z,100.00
2022-10-14T08:06:58.570Z,100.00
2022-10-14T08:09:28.633Z,100.00
2022-10-14T08:12:01.173Z,100.00
2022-10-14T08:14:31.379Z,100.00
2022-10-14T08:17:01.469Z,100.00
2022-10-14T08:19:31.626Z,100.00
2022-10-14T08:22:01.703Z,100.00
2022-10-14T08:24:31.878Z,100.00
2022-10-14T08:27:07.105Z,100.00
2022-10-14T08:29:37.450Z,100.00
2022-10-14T08:32:07.978Z,100.00
2022-10-14T08:34:38.083Z,100.00
2022-10-14T08:37:08.183Z,100.00
2022-10-14T08:39:38.306Z,100.00
2022-10-14T08:42:33.360Z,100.00
2022-10-14T08:45:11.759Z,100.00
2022-10-14T08:47:47.150Z,100.00
2022-10-14T08:50:29.771Z,100.00
2022-10-14T08:53:07.174Z,100.00
2022-10-14T08:55:42.460Z,100.00
2022-10-14T09:01:25.095Z,100.00
2022-10-14T09:04:01.876Z,100.00
2022-10-14T09:06:34.948Z,100.00
2022-10-14T09:09:14.762Z,100.00
2022-10-14T09:11:51.534Z,100.00
2022-10-14T09:14:29.506Z,100.00
2022-10-14T09:17:09.643Z,100.00
2022-10-14T09:19:50.665Z,100.00
2022-10-14T09:22:21.107Z,100.00
2022-10-14T09:24:51.303Z,100.00
2022-10-14T09:27:25.114Z,100.00
2022-10-14T09:30:03.248Z,100.00
2022-10-14T09:32:39.473Z,100.00
2022-10-14T09:35:18.119Z,100.00
2022-10-14T09:37:48.132Z,100.00
2022-10-14T09:40:26.422Z,100.00
2022-10-14T09:43:04.641Z,100.00
2022-10-14T09:45:53.987Z,100.00
2022-10-14T09:48:37.897Z,100.00
2022-10-14T09:51:12.100Z,100.00
2022-10-14T09:53:49.099Z,100.00
2022-10-14T09:56:31.840Z,100.00
2022-10-14T09:59:02.170Z,100.00
2022-10-14T10:01:42.675Z,100.00
2022-10-14T10:04:35.466Z,100.00
2022-10-14T10:07:09.576Z,100.00
2022-10-14T10:09:39.658Z,100.00
2022-10-14T10:12:26.976Z,100.00
2022-10-14T10:15:03.772Z,100.00
2022-10-14T10:17:40.838Z,100.00
2022-10-14T10:20:28.636Z,100.00
2022-10-14T10:23:00.320Z,99.18
2022-10-14T10:25:31.436Z,97.52
2022-10-14T10:28:02.592Z,88.68
2022-10-14T10:30:46.412Z,84.48
2022-10-14T10:33:41.121Z,82.20
2022-10-14T10:36:26.442Z,86.30
2022-10-14T10:39:03.163Z,89.07
2022-10-14T10:41:53.443Z,89.26
2022-10-14T10:44:42.331Z,92.07
2022-10-14T10:47:35.437Z,91.25
2022-10-14T10:50:31.883Z,88.34
2022-10-14T10:53:43.335Z,94.85
2022-10-14T10:56:33.701Z,100.00
2022-10-14T10:59:43.303Z,100.00
2022-10-14T11:02:57.687Z,100.00
2022-10-14T11:05:48.723Z,100.00
2022-10-14T11:09:06.583Z,100.00
2022-10-14T11:12:10.337Z,100.00
2022-10-14T11:15:21.162Z,100.00
2022-10-14T11:18:01.633Z,100.00
2022-10-14T11:20:50.375Z,100.00
2022-10-14T11:23:49.166Z,100.00
2022-10-14T11:26:45.545Z,100.00
2022-10-14T11:29:41.532Z,100.00
2022-10-14T11:32:24.956Z,100.00
2022-10-14T11:35:17.717Z,100.00
2022-10-14T11:38:21.506Z,100.00
2022-10-14T11:41:04.079Z,100.00
2022-10-14T11:43:49.254Z,100.00
2022-10-14T11:46:24.241Z,100.00
2022-10-14T11:49:00.963Z,100.00
2022-10-14T11:51:40.740Z,100.00
2022-10-14T11:54:21.427Z,100.00
2022-10-14T11:57:00.147Z,100.00
2022-10-14T12:00:05.229Z,100.00
2022-10-14T12:02:54.636Z,100.00
2022-10-14T12:05:37.803Z,100.00
2022-10-14T12:08:23.338Z,100.00
2022-10-14T12:11:04.821Z,100.00
2022-10-14T12:13:42.905Z,100.00
2022-10-14T12:16:18.546Z,100.00
2022-10-14T12:18:55.271Z,100.00
2022-10-14T12:21:38.322Z,100.00
2022-10-14T12:24:14.875Z,100.00
2022-10-14T12:26:58.784Z,100.00
2022-10-14T12:29:34.994Z,100.00
2022-10-14T12:32:24.368Z,100.00
2022-10-14T12:34:56.915Z,100.00
2022-10-14T12:37:52.977Z,100.00
2022-10-14T12:40:36.619Z,100.00
2022-10-14T12:43:21.620Z,99.29
2022-10-14T12:46:12.346Z,94.26
2022-10-14T12:48:53.095Z,100.00
2022-10-14T12:51:28.388Z,100.00
2022-10-14T12:54:10.467Z,100.00
2022-10-14T12:56:47.625Z,100.00
2022-10-14T12:59:30.591Z,100.00
2022-10-14T13:02:05.811Z,100.00
2022-10-14T13:04:36.579Z,100.00
2022-10-14T13:07:42.121Z,100.00
2022-10-14T13:10:48.453Z,100.00
2022-10-14T13:13:53.573Z,100.00
2022-10-14T13:17:05.716Z,100.00
2022-10-14T13:19:47.727Z,100.00
2022-10-14T13:22:42.433Z,100.00
2022-10-14T13:25:31.037Z,100.00
2022-10-14T13:28:25.148Z,100.00
2022-10-14T13:31:07.453Z,100.00
2022-10-14T13:33:47.269Z,100.00
2022-10-14T13:36:26.450Z,100.00
2022-10-14T13:39:02.715Z,100.00
2022-10-14T13:41:34.732Z,100.00
2022-10-14T13:44:05.597Z,100.00
2022-10-14T13:46:42.181Z,100.00
2022-10-14T13:49:20.473Z,100.00
2022-10-14T13:51:55.808Z,100.00
2022-10-14T13:54:28.253Z,100.00
2022-10-14T13:57:43.098Z,100.00
2022-10-14T14:02:51.820Z,100.00
2022-10-14T14:05:37.865Z,100.00
2022-10-14T14:11:18.928Z,100.00
2022-10-14T14:14:01.069Z,100.00
2022-10-14T14:16:39.459Z,100.00
2022-10-14T14:19:21.852Z,100.00
2022-10-14T14:22:07.698Z,100.00
2022-10-14T14:24:37.923Z,100.00
2022-10-14T14:27:08.423Z,100.00
2022-10-14T14:29:39.183Z,100.00
2022-10-14T14:32:09.516Z,100.00
2022-10-14T14:34:42.140Z,100.00
2022-10-14T14:37:55.085Z,100.00
2022-10-14T14:40:22.560Z,100.00
2022-10-14T14:42:56.688Z,100.00
2022-10-14T14:45:30.585Z,100.00
2022-10-14T14:48:06.979Z,100.00
2022-10-14T14:50:43.022Z,100.00
2022-10-14T14:53:21.456Z,100.00
2022-10-14T14:56:11.857Z,100.00
2022-10-14T14:58:52.409Z,100.00
2022-10-14T15:01:26.959Z,100.00
2022-10-14T15:04:13.196Z,100.00
2022-10-14T15:06:51.110Z,100.00
2022-10-14T15:09:39.530Z,100.00
2022-10-14T15:12:20.638Z,100.00
2022-10-14T15:14:53.195Z,100.00
2022-10-14T15:17:34.536Z,100.00
2022-10-14T15:20:35.097Z,100.00
2022-10-14T15:23:05.220Z,100.00
2022-10-14T15:25:35.670Z,100.00
2022-10-14T15:28:06.434Z,100.00
2022-10-14T15:30:51.864Z,100.00
2022-10-14T15:33:24.881Z,100.00
2022-10-14T15:36:02.908Z,100.00
2022-10-14T15:38:33.520Z,100.00
2022-10-14T15:41:07.675Z,100.00
2022-10-14T15:43:39.970Z,100.00
2022-10-14T15:46:29.033Z,100.00
2022-10-14T15:49:23.105Z,100.00
2022-10-14T15:51:56.046Z,100.00
2022-10-14T15:54:27.704Z,100.00
2022-10-14T15:56:58.556Z,100.00
2022-10-14T15:59:29.124Z,100.00
2022-10-14T16:01:59.856Z,100.00
2022-10-14T16:04:31.343Z,100.00
2022-10-14T16:07:03.935Z,100.00
2022-10-14T16:09:33.950Z,100.00
2022-10-14T16:12:04.978Z,100.00
2022-10-14T16:14:35.022Z,100.00
2022-10-14T16:17:05.620Z,100.00
2022-10-14T16:19:36.045Z,100.00
2022-10-14T16:22:12.522Z,100.00
2022-10-14T16:24:43.017Z,100.00
2022-10-14T16:27:13.083Z,100.00
2022-10-14T16:29:43.198Z,100.00
2022-10-14T16:32:15.413Z,100.00
2022-10-14T16:34:45.626Z,100.00
2022-10-14T16:37:18.228Z,100.00
2022-10-14T16:39:49.619Z,100.00
2022-10-14T16:42:19.725Z,100.00
2022-10-14T16:44:49.759Z,100.00
2022-10-14T16:47:20.739Z,100.00
2022-10-14T16:49:53.605Z,100.00
2022-10-14T16:52:26.675Z,100.00
2022-10-14T16:54:57.032Z,100.00
2022-10-14T16:57:27.177Z,100.00
2022-10-14T16:59:57.265Z,100.00
2022-10-14T17:02:31.957Z,100.00
2022-10-14T17:05:02.027Z,100.00
2022-10-14T17:07:34.639Z,100.00
2022-10-14T17:10:05.181Z,100.00
2022-10-14T17:12:35.653Z,100.00
2022-10-14T17:15:05.813Z,100.00
2022-10-14T17:17:36.071Z,100.00
2022-10-14T17:20:06.539Z,100.00
2022-10-14T17:22:39.323Z,100.00
2022-10-14T17:25:11.285Z,100.00
2022-10-14T17:27:41.561Z,100.00
2022-10-14T17:30:13.293Z,100.00
2022-10-14T17:32:43.297Z,100.00
2022-10-14T17:35:15.225Z,100.00
2022-10-14T17:37:49.231Z,100.00
2022-10-14T17:40:19.497Z,100.00
2022-10-14T17:42:50.507Z,100.00
2022-10-14T17:45:20.736Z,100.00
2022-10-14T17:47:50.810Z,100.00
2022-10-14T17:50:22.787Z,100.00
2022-10-14T17:52:58.845Z,100.00
2022-10-14T17:55:28.973Z,100.00
2022-10-14T17:57:59.020Z,100.00
2022-10-14T18:00:29.694Z,100.00
2022-10-14T18:02:59.752Z,100.00
2022-10-14T18:05:30.627Z,100.00
2022-10-14T18:08:03.296Z,100.00
2022-10-14T18:10:33.560Z,100.00
2022-10-14T18:13:04.015Z,100.00
2022-10-14T18:15:36.387Z,100.00
2022-10-14T18:18:07.205Z,100.00
2022-10-14T18:20:39.653Z,100.00
2022-10-14T18:23:12.657Z,100.00
2022-10-14T18:25:42.727Z,100.00
2022-10-14T18:28:12.961Z,100.00
2022-10-14T18:30:43.035Z,100.00
2022-10-14T18:33:13.096Z,100.00
2022-10-14T18:35:46.394Z,100.00
2022-10-14T18:38:21.372Z,100.00
2022-10-14T18:43:30.396Z,100.00
2022-10-14T18:46:13.789Z,100.00
2022-10-14T18:48:46.809Z,100.00
2022-10-14T18:51:18.939Z,100.00
2022-10-14T18:53:51.908Z,100.00
2022-10-14T18:56:25.225Z,100.00
2022-10-14T18:58:59.648Z,100.00
2022-10-14T19:01:30.452Z,100.00
2022-10-14T19:04:01.981Z,100.00
2022-10-14T19:06:32.939Z,100.00
2022-10-14T19:09:06.717Z,100.00
2022-10-14T19:11:37.729Z,100.00
2022-10-14T19:14:08.041Z,100.00
2022-10-14T19:16:40.849Z,100.00
2022-10-14T19:19:16.690Z,100.00
2022-10-14T19:21:48.578Z,100.00
2022-10-14T19:24:21.950Z,100.00
2022-10-14T19:26:54.223Z,100.00
2022-10-14T19:29:24.778Z,100.00
2022-10-14T19:31:55.296Z,100.00
2022-10-14T19:34:27.207Z,100.00
2022-10-14T19:37:00.131Z,100.00
2022-10-14T19:39:32.917Z,100.00
2022-10-14T19:42:03.088Z,100.00
2022-10-14T19:47:23.521Z,100.00
2022-10-14T19:49:53.753Z,100.00
2022-10-14T19:52:23.811Z,100.00
2022-10-14T19:54:56.444Z,100.00
2022-10-14T19:57:26.643Z,100.00
2022-10-14T19:59:56.707Z,100.00
2022-10-14T20:02:26.979Z,100.00
2022-10-14T20:04:57.015Z,100.00
2022-10-14T20:07:27.163Z,100.00
2022-10-14T20:10:02.015Z,100.00
2022-10-14T20:12:33.124Z,100.00
2022-10-14T20:15:03.233Z,100.00
2022-10-14T20:17:33.596Z,100.00
2022-10-14T20:20:03.654Z,100.00
2022-10-14T20:22:35.024Z,100.00
2022-10-14T20:25:09.015Z,100.00
2022-10-14T20:27:39.265Z,100.00
2022-10-14T20:30:11.368Z,100.00
2022-10-14T20:32:41.413Z,100.00
2022-10-14T20:35:15.015Z,100.00
2022-10-14T20:37:45.346Z,100.00
2022-10-14T20:40:18.681Z,100.00
2022-10-14T20:42:48.739Z,100.00
2022-10-14T20:45:19.305Z,100.00
2022-10-14T20:47:53.760Z,100.00
2022-10-14T20:50:24.390Z,100.00
2022-10-14T20:52:54.464Z,100.00
2022-10-14T20:55:27.134Z,100.00
2022-10-14T20:57:57.389Z,100.00
2022-10-14T21:00:27.544Z,100.00
2022-10-14T21:02:57.651Z,100.00
2022-10-14T21:05:27.931Z,100.00
2022-10-14T21:07:58.055Z,100.00
2022-10-14T21:10:30.636Z,100.00
2022-10-14T21:13:00.714Z,100.00
2022-10-14T21:15:31.430Z,100.00
2022-10-14T21:18:01.491Z,100.00
2022-10-14T21:20:31.654Z,100.00
2022-10-14T21:23:01.719Z,100.00
2022-10-14T21:25:34.374Z,100.00
2022-10-14T21:28:04.440Z,100.00
2022-10-14T21:30:34.607Z,100.00
2022-10-14T21:33:04.751Z,100.00
2022-10-14T21:35:34.800Z,100.00
2022-10-14T21:38:04.899Z,100.00
2022-10-14T21:40:37.572Z,100.00
2022-10-14T21:43:07.631Z,100.00
2022-10-14T21:45:37.691Z,100.00
2022-10-14T21:48:08.598Z,100.00
2022-10-14T21:50:38.668Z,100.00
2022-10-14T21:53:11.337Z,100.00
2022-10-14T21:55:46.499Z,100.00
2022-10-14T21:58:16.771Z,100.00
2022-10-14T22:00:46.827Z,100.00
2022-10-14T22:03:17.768Z,100.00
2022-10-14T22:05:47.957Z,100.00
2022-10-14T22:08:23.001Z,100.00
2022-10-14T22:10:55.647Z,100.00
2022-10-14T22:13:25.735Z,100.00
2022-10-14T22:15:56.285Z,100.00
2022-10-14T22:18:27.039Z,100.00
2022-10-14T22:21:06.534Z,100.00
2022-10-14T22:23:40.145Z,100.00
2022-10-14T22:26:16.854Z,100.00
2022-10-14T22:28:47.277Z,100.00
2022-10-14T22:31:20.935Z,100.00
2022-10-14T22:33:52.788Z,100.00
2022-10-14T22:36:28.024Z,100.00
2022-10-14T22:39:01.236Z,100.00
2022-10-14T22:41:35.648Z,100.00
2022-10-14T22:44:08.696Z,100.00
2022-10-14T22:46:41.680Z,100.00
2022-10-14T22:49:12.038Z,100.00
2022-10-14T22:51:43.119Z,100.00
2022-10-14T22:54:14.144Z,100.00
2022-10-14T22:56:46.772Z,100.00
2022-10-14T22:59:16.969Z,100.00
2022-10-14T23:01:46.976Z,100.00
2022-10-14T23:04:17.015Z,100.00
2022-10-14T23:06:49.757Z,100.00
2022-10-14T23:09:20.115Z,100.00
2022-10-14T23:11:52.970Z,100.00
2022-10-14T23:14:22.991Z,100.00
2022-10-14T23:16:53.040Z,100.00
2022-10-14T23:19:23.156Z,100.00
2022-10-14T23:21:53.197Z,100.00
2022-10-14T23:24:23.233Z,100.00
2022-10-14T23:26:55.944Z,100.00
2022-10-14T23:29:25.974Z,100.00
2022-10-14T23:31:56.902Z,100.00
2022-10-14T23:34:26.905Z,100.00
2022-10-14T23:36:57.154Z,100.00
2022-10-14T23:39:27.207Z,100.00
2022-10-14T23:42:00.230Z,100.00
2022-10-14T23:44:31.665Z,100.00
2022-10-14T23:47:01.989Z,100.00
2022-10-14T23:49:32.035Z,100.00
2022-10-14T23:52:02.101Z,100.00
2022-10-14T23:54:32.170Z,100.00
2022-10-14T23:57:04.785Z,100.00
2022-10-14T23:59:34.799Z,100.00
